Time;durP1;ratioP1;P1;durP2;ratioP2;P2;SDS_P1;SDS_P2;PMS_P1;PMS_P2;Temp;Humidity;BMP_temperature;BMP_pressure;BME280_temperature;BME280_humidity;BME280_pressure;Samples;Min_cycle;Max_cycle;Signal;HPM_P1;HPM_P2
2022/05/09 00:00:01;;;;;;;6.53;3.50;;;;;;;10.28;49.08;102093.88;685227;28;737;-82
2022/05/09 00:00:32;;;;;;;5.32;3.50;;;;;;;10.26;49.11;102081.59;684975;28;1145;-81
2022/05/09 00:00:52;;;;;;;4.13;3.42;;;;;;;10.21;49.28;102081.31;685200;28;685;-82
2022/05/09 00:01:13;;;;;;;5.33;4.10;;;;;;;10.26;48.83;102089.44;687272;28;1161;-82
2022/05/09 00:01:34;;;;;;;5.40;4.07;;;;;;;10.23;48.96;102084.03;684857;28;1298;-81
2022/05/09 00:01:56;;;;;;;6.38;4.20;;;;;;;10.26;49.26;102097.25;685040;28;1331;-82
2022/05/09 00:02:16;;;;;;;6.80;3.70;;;;;;;10.19;48.89;102076.84;687825;28;1013;-82
2022/05/09 00:02:38;;;;;;;7.07;3.92;;;;;;;10.25;49.04;102096.34;692544;28;1084;-82
2022/05/09 00:02:59;;;;;;;6.78;4.18;;;;;;;10.26;49.12;102094.66;693228;28;1496;-82
2022/05/09 00:03:19;;;;;;;5.80;4.00;;;;;;;10.22;49.06;102084.81;685051;28;1080;-82
2022/05/09 00:03:40;;;;;;;5.70;3.97;;;;;;;10.22;48.87;102082.22;685219;28;753;-82
2022/05/09 00:04:00;;;;;;;6.97;4.20;;;;;;;10.25;49.33;102087.63;692521;28;1321;-82
2022/05/09 00:04:21;;;;;;;6.80;4.13;;;;;;;10.27;49.05;102088.59;687662;28;1285;-81
2022/05/09 00:04:42;;;;;;;7.53;3.97;;;;;;;10.20;49.47;102078.66;690338;28;1460;-81
2022/05/09 00:05:05;;;;;;;8.23;4.00;;;;;;;10.13;48.91;102073.09;685068;28;1047;-82
2022/05/09 00:05:27;;;;;;;10.77;4.15;;;;;;;10.26;48.76;102090.31;687745;28;1032;-82
2022/05/09 00:05:48;;;;;;;10.50;4.20;;;;;;;10.18;49.05;102067.25;687362;28;1319;-81
2022/05/09 00:06:08;;;;;;;8.60;3.97;;;;;;;10.21;49.10;102080.44;687771;28;954;-81
2022/05/09 00:06:32;;;;;;;5.53;3.72;;;;;;;10.24;49.31;102085.81;693018;28;1354;-82
2022/05/09 00:06:53;;;;;;;5.75;3.85;;;;;;;10.26;48.85;102089.44;689992;28;1205;-82
2022/05/09 00:07:14;;;;;;;7.47;4.03;;;;;;;10.23;49.38;102081.44;684941;28;1055;-82
2022/05/09 00:07:35;;;;;;;7.70;4.10;;;;;;;10.23;49.21;102084.03;685153;28;1041;-82
2022/05/09 00:07:56;;;;;;;8.60;4.10;;;;;;;10.16;49.07;102074.97;687780;28;1350;-82
2022/05/09 00:08:17;;;;;;;12.30;4.18;;;;;;;10.24;49.24;102086.72;687759;28;1020;-82
2022/05/09 00:08:39;;;;;;;12.15;4.53;;;;;;;10.23;49.30;102084.03;689980;28;1290;-82
2022/05/09 00:09:02;;;;;;;12.48;4.57;;;;;;;10.24;49.06;102085.81;690498;28;814;-82
2022/05/09 00:09:23;;;;;;;9.65;4.68;;;;;;;10.21;49.14;102075.22;690313;28;1173;-82
2022/05/09 00:09:52;;;;;;;11.50;4.50;;;;;;;10.27;49.42;102083.38;684680;28;799;-81
2022/05/09 00:10:16;;;;;;;11.88;4.30;;;;;;;10.21;49.16;102077.81;682007;29;1017;-82
2022/05/09 00:10:36;;;;;;;9.50;3.80;;;;;;;10.21;49.29;102081.31;687628;28;1264;-81
2022/05/09 00:10:57;;;;;;;11.10;3.92;;;;;;;10.15;49.34;102071.47;687667;28;1253;-82
2022/05/09 00:11:18;;;;;;;10.57;3.80;;;;;;;10.21;49.13;102072.59;689754;28;1193;-82
2022/05/09 00:11:39;;;;;;;10.90;3.80;;;;;;;10.24;48.86;102081.50;687684;28;1414;-82
2022/05/09 00:12:00;;;;;;;8.93;3.70;;;;;;;10.24;49.23;102078.00;685108;28;1204;-82
2022/05/09 00:12:20;;;;;;;8.65;3.92;;;;;;;10.14;49.08;102064.47;684752;28;1977;-82
2022/05/09 00:12:41;;;;;;;7.00;4.00;;;;;;;10.21;48.96;102083.03;685174;28;1313;-81
2022/05/09 00:13:02;;;;;;;8.90;4.30;;;;;;;10.20;48.98;102083.88;687764;28;957;-82
2022/05/09 00:13:25;;;;;;;8.67;4.13;;;;;;;10.19;49.32;102077.72;685076;28;1207;-82
2022/05/09 00:13:46;;;;;;;7.32;4.10;;;;;;;10.14;49.08;102074.03;690410;28;1360;-81
2022/05/09 00:14:11;;;;;;;8.48;4.10;;;;;;;10.14;49.20;102069.69;687767;28;1255;-82
2022/05/09 00:14:32;;;;;;;8.95;4.20;;;;;;;10.11;48.89;102064.31;684966;28;1387;-83
2022/05/09 00:14:53;;;;;;;7.20;3.88;;;;;;;10.21;48.97;102083.03;687858;28;740;-82
2022/05/09 00:15:16;;;;;;;6.40;3.77;;;;;;;10.15;49.24;102081.91;687702;28;1068;-82
2022/05/09 00:15:36;;;;;;;5.93;3.63;;;;;;;10.12;48.89;102067.81;692996;28;945;-82
2022/05/09 00:15:57;;;;;;;6.23;3.73;;;;;;;10.18;49.11;102080.28;687736;28;1158;-82
2022/05/09 00:16:17;;;;;;;6.28;4.00;;;;;;;10.14;49.03;102080.13;690527;28;1050;-82
2022/05/09 00:16:39;;;;;;;5.35;4.00;;;;;;;10.14;49.25;102077.50;693225;28;744;-82
2022/05/09 00:17:00;;;;;;;5.03;3.92;;;;;;;10.14;49.19;102074.03;690619;28;791;-81
2022/05/09 00:17:20;;;;;;;4.68;3.80;;;;;;;10.11;49.21;102069.53;687689;28;1210;-81
2022/05/09 00:17:41;;;;;;;6.93;3.63;;;;;;;10.14;49.21;102074.91;690009;28;1228;-81
2022/05/09 00:18:03;;;;;;;7.15;3.70;;;;;;;10.11;49.07;102074.75;693230;28;1128;-81
2022/05/09 00:18:24;;;;;;;8.55;3.90;;;;;;;10.11;49.14;102074.75;689900;28;1312;-81
2022/05/09 00:18:44;;;;;;;6.93;4.20;;;;;;;10.13;49.19;102077.41;687796;28;954;-81
2022/05/09 00:19:07;;;;;;;7.50;4.20;;;;;;;10.13;49.33;102075.72;685035;28;1163;-82
2022/05/09 00:19:28;;;;;;;8.88;4.60;;;;;;;10.06;49.16;102070.13;684812;28;931;-81
2022/05/09 00:19:48;;;;;;;11.00;4.93;;;;;;;10.08;49.22;102069.34;686982;28;1153;-82
2022/05/09 00:20:10;;;;;;;13.27;4.80;;;;;;;10.10;49.38;102072.97;690411;28;1286;-81
2022/05/09 00:20:30;;;;;;;10.57;4.03;;;;;;;10.08;49.50;102069.34;690476;28;1048;-82
2022/05/09 00:20:51;;;;;;;10.00;3.80;;;;;;;10.11;49.62;102074.75;687727;28;1282;-81
2022/05/09 00:21:11;;;;;;;6.30;3.70;;;;;;;10.13;49.40;102080.03;685010;28;1056;-82
2022/05/09 00:21:34;;;;;;;6.63;3.80;;;;;;;10.07;49.29;102070.19;684943;28;1103;-82
2022/05/09 00:22:10;;;;;;;6.10;3.80;;;;;;;10.05;49.52;102063.09;685127;28;950;-82
2022/05/09 00:22:30;;;;;;;5.43;3.78;;;;;;;10.07;49.63;102072.78;687111;28;1573;-81
2022/05/09 00:22:55;;;;;;;5.10;3.47;;;;;;;10.12;49.58;102081.75;687722;28;1347;-81
2022/05/09 00:23:15;;;;;;;4.90;3.30;;;;;;;10.05;49.24;102066.59;690386;28;1352;-82
2022/05/09 00:23:36;;;;;;;7.63;3.60;;;;;;;10.03;49.43;102062.13;690439;28;1175;-82
2022/05/09 00:23:57;;;;;;;8.57;3.90;;;;;;;10.10;49.22;102075.56;687797;28;1265;-82
2022/05/09 00:24:19;;;;;;;9.35;4.00;;;;;;;10.10;49.29;102074.66;682344;28;1374;-81
2022/05/09 00:24:40;;;;;;;8.63;4.00;;;;;;;10.00;49.33;102066.38;690451;28;1237;-81
2022/05/09 00:25:01;;;;;;;11.38;3.92;;;;;;;10.05;49.56;102074.44;692409;28;1130;-81
2022/05/09 00:25:25;;;;;;;13.30;4.33;;;;;;;10.09;49.59;102076.34;687457;28;1055;-81
2022/05/09 00:25:46;;;;;;;11.02;4.50;;;;;;;10.10;49.60;102082.50;690308;28;1163;-81
2022/05/09 00:26:07;;;;;;;9.27;4.35;;;;;;;10.05;49.58;102071.81;690384;28;1292;-82
2022/05/09 00:26:33;;;;;;;10.80;4.45;;;;;;;10.10;49.50;102083.41;690384;28;1000;-82
2022/05/09 00:26:53;;;;;;;8.02;4.15;;;;;;;10.04;49.76;102076.94;682458;29;867;-82
2022/05/09 00:27:14;;;;;;;8.10;3.80;;;;;;;10.01;49.62;102067.25;685053;28;1209;-81
2022/05/09 00:27:34;;;;;;;7.10;4.00;;;;;;;10.03;49.41;102070.84;684605;28;1311;-81
2022/05/09 00:27:55;;;;;;;9.60;4.47;;;;;;;10.04;49.83;102077.88;687024;28;1150;-82
2022/05/09 00:28:16;;;;;;;8.88;4.45;;;;;;;9.97;49.73;102063.59;687706;28;1024;-82
2022/05/09 00:28:45;;;;;;;9.97;4.37;;;;;;;10.06;49.62;102080.56;690413;28;1198;-82
2022/05/09 00:29:07;;;;;;;7.18;3.95;;;;;;;10.02;49.76;102076.91;684576;28;1338;-81
2022/05/09 00:29:27;;;;;;;6.40;3.60;;;;;;;10.09;49.82;102085.91;687315;28;1243;-81
2022/05/09 00:29:48;;;;;;;6.57;3.70;;;;;;;10.05;49.62;102082.25;687343;28;804;-82
2022/05/09 00:30:09;;;;;;;6.45;3.80;;;;;;;10.04;49.48;102082.16;687598;28;1239;-81
2022/05/09 00:30:30;;;;;;;10.43;4.25;;;;;;;9.96;49.49;102068.75;690300;28;1005;-82
2022/05/09 00:30:51;;;;;;;11.10;4.20;;;;;;;10.03;49.85;102080.38;687301;28;1174;-82
2022/05/09 00:31:16;;;;;;;10.40;4.18;;;;;;;10.00;49.65;102073.28;687610;28;1134;-81
2022/05/09 00:31:40;;;;;;;5.40;3.60;;;;;;;10.03;49.71;102076.06;687605;28;1582;-81
2022/05/09 00:32:00;;;;;;;6.40;3.92;;;;;;;10.08;49.54;102086.75;687695;28;917;-81
2022/05/09 00:32:21;;;;;;;7.10;3.97;;;;;;;9.99;49.56;102071.50;684892;28;1915;-82
2022/05/09 00:32:42;;;;;;;11.57;4.60;;;;;;;10.03;49.42;102080.38;690326;28;1139;-81
2022/05/09 00:33:04;;;;;;;11.23;4.50;;;;;;;10.07;49.77;102083.22;687696;28;1283;-82
2022/05/09 00:33:25;;;;;;;11.65;4.38;;;;;;;9.99;49.70;102068.91;690418;28;1322;-82
2022/05/09 00:33:45;;;;;;;10.02;4.30;;;;;;;10.05;49.79;102090.09;690438;28;1247;-81
2022/05/09 00:34:47;;;;;;;9.48;4.20;;;;;;;10.05;49.70;102081.34;684933;28;1176;-82
2022/05/09 00:35:10;;;;;;;6.63;4.28;;;;;;;9.99;49.70;102074.13;690204;28;1147;-81
2022/05/09 00:35:31;;;;;;;6.70;3.70;;;;;;;9.97;49.38;102080.97;687592;28;1273;-81
2022/05/09 00:36:01;;;;;;;7.82;4.00;;;;;;;9.99;49.45;102087.16;693022;28;1233;-81
2022/05/09 00:36:22;;;;;;;7.35;4.10;;;;;;;9.99;49.73;102084.53;689551;28;1681;-81
2022/05/09 00:36:43;;;;;;;6.45;4.20;;;;;;;9.96;49.84;102080.06;692762;28;1201;-81
2022/05/09 00:37:05;;;;;;;7.15;4.65;;;;;;;9.97;49.67;102074.03;688707;28;1364;-82
2022/05/09 00:37:25;;;;;;;8.00;4.75;;;;;;;9.94;50.08;102067.78;690319;28;1292;-82
2022/05/09 00:37:46;;;;;;;8.48;4.53;;;;;;;9.92;49.96;102074.59;687694;28;1268;-81
2022/05/09 00:38:08;;;;;;;6.70;3.85;;;;;;;9.92;49.91;102072.00;690440;28;1210;-82
2022/05/09 00:38:29;;;;;;;6.82;3.65;;;;;;;9.96;49.88;102084.41;687129;28;1359;-81
2022/05/09 00:38:50;;;;;;;9.60;3.95;;;;;;;9.99;49.98;102084.53;685177;28;771;-82
2022/05/09 00:39:13;;;;;;;10.65;4.25;;;;;;;9.96;50.07;102087.00;687053;28;1161;-81
2022/05/09 00:39:34;;;;;;;8.80;3.90;;;;;;;9.95;50.14;102080.00;692574;28;1299;-82
2022/05/09 00:39:55;;;;;;;6.53;3.60;;;;;;;9.90;49.99;102068.44;690134;28;1322;-81
2022/05/09 00:40:16;;;;;;;5.68;3.53;;;;;;;9.97;50.04;102078.34;684761;28;1413;-82
2022/05/09 00:40:38;;;;;;;9.85;4.10;;;;;;;10.01;49.69;102088.13;687679;28;1069;-82
2022/05/09 00:41:40;;;;;;;7.20;4.70;;;;;;;10.02;50.22;102082.13;690325;28;1130;-81
2022/05/09 00:42:09;;;;;;;7.40;4.78;;;;;;;9.99;49.80;102081.94;690492;28;894;-81
2022/05/09 00:42:30;;;;;;;7.22;4.85;;;;;;;9.92;49.86;102078.13;687570;28;1196;-82
2022/05/09 00:42:53;;;;;;;5.47;4.30;;;;;;;9.87;50.12;102066.56;685287;28;1220;-82
2022/05/09 00:43:36;;;;;;;6.20;4.20;;;;;;;9.91;49.86;102076.34;688229;28;1462;-81
2022/05/09 00:44:01;;;;;;;7.85;3.72;;;;;;;9.90;49.92;102076.25;688116;28;2015;-82
2022/05/09 00:44:26;;;;;;;7.95;3.78;;;;;;;9.98;50.12;102080.16;688152;28;1141;-82
2022/05/09 00:44:47;;;;;;;7.13;4.22;;;;;;;9.97;50.20;102097.50;682831;28;1429;-81
2022/05/09 00:45:23;;;;;;;8.52;4.70;;;;;;;9.93;50.24;102084.22;685567;28;1313;-81
2022/05/09 00:45:44;;;;;;;8.25;4.40;;;;;;;9.95;50.13;102083.50;688054;28;1365;-81
2022/05/09 00:46:05;;;;;;;9.30;4.80;;;;;;;9.97;50.07;102083.56;690115;28;1171;-81
2022/05/09 00:46:28;;;;;;;9.98;4.90;;;;;;;9.91;50.30;102075.44;690242;28;1275;-82
2022/05/09 00:46:51;;;;;;;9.88;4.55;;;;;;;9.98;50.02;102082.75;690919;28;1307;-82
2022/05/09 00:47:12;;;;;;;8.10;3.88;;;;;;;9.96;49.55;102089.63;685414;28;1312;-81
2022/05/09 00:47:32;;;;;;;7.80;4.30;;;;;;;9.93;49.92;102073.78;690834;28;1200;-82
2022/05/09 00:47:53;;;;;;;8.80;4.80;;;;;;;9.94;50.25;102081.69;693218;28;1061;-81
2022/05/09 00:48:14;;;;;;;11.23;4.90;;;;;;;9.94;50.12;102080.81;693644;28;1000;-81
2022/05/09 00:48:36;;;;;;;11.32;4.72;;;;;;;9.95;50.04;102087.81;690892;28;1088;-82
2022/05/09 00:49:19;;;;;;;9.05;4.20;;;;;;;9.88;49.92;102070.94;688026;28;1590;-82
2022/05/09 00:49:47;;;;;;;8.32;4.05;;;;;;;9.91;50.27;102083.25;679371;29;1196;-83
2022/05/09 00:50:10;;;;;;;8.48;3.92;;;;;;;9.94;49.97;102084.31;682755;29;1133;-82
2022/05/09 00:50:32;;;;;;;9.10;3.78;;;;;;;9.92;50.31;102085.03;688061;28;1266;-81
2022/05/09 00:50:54;;;;;;;7.07;3.72;;;;;;;9.89;50.14;102077.94;690954;28;799;-81
2022/05/09 00:51:23;;;;;;;7.65;4.30;;;;;;;9.86;50.02;102078.72;690237;28;1470;-82
2022/05/09 00:52:11;;;;;;;8.68;4.30;;;;;;;9.90;50.16;102078.84;690924;28;920;-82
2022/05/09 00:52:43;;;;;;;10.32;4.10;;;;;;;9.90;50.35;102084.06;690824;28;1174;-81
2022/05/09 00:53:07;;;;;;;8.65;3.83;;;;;;;9.89;50.06;102074.47;689200;28;987;-82
2022/05/09 00:53:30;;;;;;;9.45;4.20;;;;;;;9.90;49.96;102082.38;685856;28;1320;-82
2022/05/09 00:53:55;;;;;;;9.20;4.30;;;;;;;9.87;50.38;102070.06;693659;28;1223;-82
2022/05/09 00:54:19;;;;;;;7.05;4.20;;;;;;;9.85;50.36;102076.88;693534;28;1367;-82
2022/05/09 00:54:57;;;;;;;6.82;3.92;;;;;;;9.84;50.53;102069.88;693711;28;818;-81
2022/05/09 00:55:23;;;;;;;6.80;4.13;;;;;;;9.87;50.47;102082.19;690727;28;1146;-82
2022/05/09 00:56:00;;;;;;;7.88;4.47;;;;;;;9.82;50.28;102071.53;688017;28;1228;-81
2022/05/09 00:56:28;;;;;;;9.38;4.40;;;;;;;9.82;50.29;102073.22;692562;28;1534;-81
2022/05/09 00:56:56;;;;;;;10.07;4.13;;;;;;;9.76;50.17;102060.78;690887;28;1397;-81
2022/05/09 00:57:23;;;;;;;8.07;4.03;;;;;;;9.83;50.22;102078.53;690852;28;1011;-81
2022/05/09 00:58:07;;;;;;;7.53;4.15;;;;;;;9.78;50.54;102061.78;693452;28;1695;-81
2022/05/09 00:58:40;;;;;;;8.00;4.20;;;;;;;9.78;50.22;102067.00;682781;29;1258;-82
2022/05/09 00:59:06;;;;;;;9.30;4.00;;;;;;;9.83;50.58;102068.09;687954;28;1178;-81
2022/05/09 00:59:31;;;;;;;8.77;4.00;;;;;;;9.83;50.45;102069.84;690547;28;1011;-81
2022/05/09 00:59:57;;;;;;;7.70;4.00;;;;;;;9.84;50.22;102079.44;690678;28;823;-81
2022/05/09 01:00:22;;;;;;;6.95;4.03;;;;;;;9.84;50.35;102074.22;682614;28;1225;-81
2022/05/09 01:00:45;;;;;;;6.80;4.00;;;;;;;9.80;50.54;102073.16;688146;28;1247;-81
2022/05/09 01:01:09;;;;;;;6.72;3.90;;;;;;;9.81;50.24;102074.03;693445;28;1220;-82
2022/05/09 01:01:29;;;;;;;6.45;4.10;;;;;;;9.84;50.79;102069.00;696095;28;1117;-81
2022/05/09 01:01:50;;;;;;;6.73;4.10;;;;;;;9.73;50.70;102060.63;690858;28;1357;-81
2022/05/09 01:02:14;;;;;;;7.75;4.40;;;;;;;9.75;50.57;102063.31;685572;28;1050;-81
2022/05/09 01:02:37;;;;;;;9.68;4.50;;;;;;;9.79;50.63;102076.59;687622;28;1245;-81
2022/05/09 01:03:04;;;;;;;9.73;4.60;;;;;;;9.81;50.51;102084.47;693605;28;1408;-81
2022/05/09 01:03:28;;;;;;;7.75;4.13;;;;;;;9.81;50.48;102079.25;688153;28;1016;-81
2022/05/09 01:03:53;;;;;;;9.98;4.40;;;;;;;9.71;50.52;102062.25;688102;28;1176;-81
2022/05/09 01:04:24;;;;;;;12.57;4.80;;;;;;;9.77;50.62;102075.59;687974;28;1036;-82
2022/05/09 01:04:52;;;;;;;10.45;4.63;;;;;;;9.73;50.27;102071.06;685456;28;1439;-81
2022/05/09 01:05:12;;;;;;;5.50;4.20;;;;;;;9.72;50.43;102072.75;690706;28;1254;-81
2022/05/09 01:05:33;;;;;;;4.47;3.78;;;;;;;9.70;50.56;102066.56;690798;28;1078;-81
2022/05/09 01:05:53;;;;;;;6.35;4.13;;;;;;;9.69;50.60;102059.56;690990;28;826;-81
2022/05/09 01:06:14;;;;;;;7.80;4.10;;;;;;;9.69;50.83;102066.47;685427;28;919;-81
2022/05/09 01:06:36;;;;;;;11.93;4.90;;;;;;;9.68;50.76;102067.28;690887;28;1209;-81
2022/05/09 01:06:58;;;;;;;13.15;4.90;;;;;;;9.71;50.92;102073.56;688244;28;787;-82
2022/05/09 01:07:20;;;;;;;10.32;4.72;;;;;;;9.72;50.51;102070.16;687568;28;1325;-82
2022/05/09 01:07:40;;;;;;;9.25;4.07;;;;;;;9.65;50.61;102061.94;688284;28;767;-81
2022/05/09 01:08:03;;;;;;;7.07;4.03;;;;;;;9.63;50.83;102063.56;688059;28;1241;-82
2022/05/09 01:08:25;;;;;;;7.90;3.87;;;;;;;9.72;50.57;102074.47;690821;28;1244;-82
2022/05/09 01:08:45;;;;;;;7.00;4.07;;;;;;;9.66;50.77;102063.72;688112;28;1401;-81
2022/05/09 01:09:07;;;;;;;7.13;3.97;;;;;;;9.68;50.92;102067.28;688156;28;1303;-81
2022/05/09 01:09:27;;;;;;;10.77;4.10;;;;;;;9.69;51.00;102069.09;690516;28;1277;-81
2022/05/09 01:09:48;;;;;;;11.55;4.00;;;;;;;9.66;50.92;102071.53;687726;28;1336;-82
2022/05/09 01:10:15;;;;;;;12.57;4.47;;;;;;;9.71;51.02;102080.50;688147;28;1093;-81
2022/05/09 01:10:41;;;;;;;9.80;4.50;;;;;;;9.70;50.88;102078.69;688074;28;1199;-82
2022/05/09 01:11:09;;;;;;;7.25;4.35;;;;;;;9.65;51.02;102068.03;690111;28;983;-82
2022/05/09 01:11:30;;;;;;;7.18;4.15;;;;;;;9.60;50.67;102064.31;688069;28;1148;-81
2022/05/09 01:11:51;;;;;;;8.20;4.20;;;;;;;9.61;50.80;102071.31;688192;28;1115;-81
2022/05/09 01:12:17;;;;;;;7.97;4.18;;;;;;;9.61;50.98;102073.91;685357;28;1938;-82
2022/05/09 01:12:39;;;;;;;5.82;3.72;;;;;;;9.65;51.13;102081.06;682718;29;1198;-81
2022/05/09 01:13:04;;;;;;;7.97;3.90;;;;;;;9.62;50.85;102073.09;689810;28;1217;-81
2022/05/09 01:13:28;;;;;;;10.82;4.28;;;;;;;9.64;50.93;102081.88;692553;28;1514;-81
2022/05/09 01:13:54;;;;;;;11.38;4.68;;;;;;;9.59;51.24;102072.94;688055;28;1169;-81
2022/05/09 01:14:19;;;;;;;9.77;4.82;;;;;;;9.63;51.30;102084.44;682936;28;1370;-82
2022/05/09 01:14:39;;;;;;;8.65;4.35;;;;;;;9.59;51.11;102075.56;693421;28;1379;-81
2022/05/09 01:15:03;;;;;;;8.13;4.10;;;;;;;9.56;51.39;102073.66;693614;28;811;-81
2022/05/09 01:15:25;;;;;;;8.00;4.10;;;;;;;9.58;51.17;102077.25;687948;28;1041;-81
2022/05/09 01:15:49;;;;;;;7.80;4.20;;;;;;;9.62;51.25;102082.59;690287;28;1420;-81
2022/05/09 01:16:10;;;;;;;6.38;4.28;;;;;;;9.58;51.19;102082.47;693441;28;1227;-82
2022/05/09 01:16:32;;;;;;;5.90;4.00;;;;;;;9.52;51.28;102066.50;690731;28;1134;-82
2022/05/09 01:16:53;;;;;;;6.78;3.70;;;;;;;9.56;51.31;102072.75;690816;28;1346;-81
2022/05/09 01:17:13;;;;;;;8.33;3.90;;;;;;;9.54;50.91;102075.31;685367;28;1263;-82
2022/05/09 01:17:39;;;;;;;8.77;4.10;;;;;;;9.60;51.22;102085.16;690723;28;1100;-81
2022/05/09 01:18:03;;;;;;;8.90;4.10;;;;;;;9.59;51.52;102083.38;688216;28;788;-82
2022/05/09 01:18:24;;;;;;;7.60;4.10;;;;;;;9.53;50.85;102075.22;688086;28;1029;-81
2022/05/09 01:18:46;;;;;;;8.57;4.18;;;;;;;9.58;51.24;102081.56;693611;28;819;-82
2022/05/09 01:19:28;;;;;;;9.00;4.60;;;;;;;9.53;51.27;102078.69;688028;28;1242;-81
2022/05/09 01:19:52;;;;;;;7.40;4.40;;;;;;;9.59;51.51;102086.84;690359;28;1327;-81
2022/05/09 01:20:14;;;;;;;7.25;4.03;;;;;;;9.53;51.29;102083.91;684701;28;1372;-81
2022/05/09 01:20:35;;;;;;;8.27;4.28;;;;;;;9.50;51.10;102073.34;685341;28;1137;-82
2022/05/09 01:20:56;;;;;;;9.82;4.57;;;;;;;9.56;51.15;102083.19;687692;28;1346;-81
2022/05/09 01:21:32;;;;;;;8.85;4.68;;;;;;;9.55;50.97;102082.31;685308;28;1348;-81
2022/05/09 01:21:53;;;;;;;7.05;4.30;;;;;;;9.54;51.25;102085.72;685593;28;1240;-81
2022/05/09 01:22:29;;;;;;;8.73;4.15;;;;;;;9.56;51.02;102086.69;687944;28;1369;-81
2022/05/09 01:22:49;;;;;;;12.40;4.55;;;;;;;9.49;51.28;102070.63;688095;28;903;-82
2022/05/09 01:23:20;;;;;;;12.43;4.80;;;;;;;9.49;51.18;102071.53;693426;28;1106;-81
2022/05/09 01:23:40;;;;;;;12.30;4.80;;;;;;;9.54;51.19;102079.59;693571;28;1363;-81
2022/05/09 01:24:05;;;;;;;8.85;4.00;;;;;;;9.48;51.38;102069.75;693500;28;974;-82
2022/05/09 01:24:27;;;;;;;8.65;4.03;;;;;;;9.46;51.64;102066.16;687920;28;1368;-82
2022/05/09 01:24:48;;;;;;;9.05;4.00;;;;;;;9.50;51.38;102065.53;688175;28;837;-82
2022/05/09 01:25:25;;;;;;;7.25;4.10;;;;;;;9.49;51.33;102065.44;687984;28;1109;-82
2022/05/09 01:25:45;;;;;;;6.72;4.10;;;;;;;9.52;51.61;102076.91;687709;28;1748;-81
2022/05/09 01:26:06;;;;;;;8.07;3.90;;;;;;;9.48;51.45;102063.63;689356;28;1201;-81
2022/05/09 01:26:27;;;;;;;9.00;3.90;;;;;;;9.48;51.28;102058.44;693210;28;1045;-81
2022/05/09 01:26:48;;;;;;;10.55;4.00;;;;;;;9.54;51.18;102077.91;688150;28;1326;-81
2022/05/09 01:27:08;;;;;;;9.05;4.07;;;;;;;9.50;51.28;102069.81;689671;28;1475;-82
2022/05/09 01:27:30;;;;;;;8.75;3.95;;;;;;;9.53;51.32;102072.63;688069;28;981;-81
2022/05/09 01:27:51;;;;;;;9.85;4.40;;;;;;;9.45;51.43;102059.16;687385;28;1292;-82
2022/05/09 01:28:13;;;;;;;10.98;4.38;;;;;;;9.49;51.22;102071.53;688063;28;1090;-81
2022/05/09 01:28:33;;;;;;;10.13;4.47;;;;;;;9.53;51.23;102068.28;693396;28;1173;-81
2022/05/09 01:28:59;;;;;;;9.73;4.38;;;;;;;9.48;51.37;102064.56;690880;28;811;-82
2022/05/09 01:29:47;;;;;;;7.90;3.72;;;;;;;9.47;51.34;102057.56;687883;28;1214;-82
2022/05/09 01:30:19;;;;;;;7.43;4.30;;;;;;;9.49;51.77;102066.34;685357;28;1241;-81
2022/05/09 01:30:57;;;;;;;7.78;4.30;;;;;;;9.58;51.74;102072.03;685899;28;823;-81
2022/05/09 01:31:18;;;;;;;7.90;4.18;;;;;;;9.58;51.64;102072.03;690153;28;1129;-82
2022/05/09 01:31:41;;;;;;;7.68;4.10;;;;;;;9.59;51.47;102076.44;682661;28;1495;-82
2022/05/09 01:32:02;;;;;;;11.57;4.15;;;;;;;9.56;51.55;102073.66;687719;28;1233;-81
2022/05/09 01:32:45;;;;;;;11.15;4.45;;;;;;;9.59;51.63;102067.72;687908;28;1902;-81
2022/05/09 01:33:13;;;;;;;7.35;3.88;;;;;;;9.53;51.61;102063.06;690559;28;1175;-81
2022/05/09 01:33:41;;;;;;;8.05;3.78;;;;;;;9.58;51.51;102074.63;684965;28;1397;-82
2022/05/09 01:34:01;;;;;;;9.35;3.72;;;;;;;9.59;51.73;102068.59;688066;28;1998;-81
2022/05/09 01:34:30;;;;;;;9.02;3.90;;;;;;;9.53;51.77;102060.47;687231;28;1285;-82
2022/05/09 01:34:58;;;;;;;8.55;4.32;;;;;;;9.56;51.14;102067.53;690807;28;1069;-81
2022/05/09 01:35:24;;;;;;;8.40;4.40;;;;;;;9.62;51.12;102070.50;693363;28;1262;-82
2022/05/09 01:35:50;;;;;;;8.35;4.10;;;;;;;9.64;51.78;102075.78;690763;28;1408;-81
2022/05/09 01:36:15;;;;;;;7.35;3.78;;;;;;;9.62;51.26;102064.38;690770;28;1069;-81
2022/05/09 01:36:37;;;;;;;7.40;3.92;;;;;;;9.56;51.47;102055.44;690538;28;1323;-81
2022/05/09 01:37:03;;;;;;;9.68;4.25;;;;;;;9.60;51.63;102054.75;693511;28;1126;-81
2022/05/09 01:37:24;;;;;;;8.32;4.07;;;;;;;9.65;51.37;102067.16;690660;28;1126;-81
2022/05/09 01:37:54;;;;;;;7.80;4.15;;;;;;;9.60;51.82;102054.75;685439;28;1199;-81
2022/05/09 01:38:33;;;;;;;7.97;4.13;;;;;;;9.68;51.23;102056.88;685219;28;1288;-81
2022/05/09 01:38:59;;;;;;;10.15;3.60;;;;;;;9.70;51.56;102065.66;690822;28;1401;-81
2022/05/09 01:39:22;;;;;;;8.25;3.58;;;;;;;9.71;51.50;102068.34;693384;28;1068;-81
2022/05/09 01:39:43;;;;;;;6.57;3.80;;;;;;;9.69;51.40;102054.34;687461;28;1369;-81
2022/05/09 01:40:04;;;;;;;6.13;3.70;;;;;;;9.71;51.35;102062.25;685370;28;1315;-81
2022/05/09 01:40:25;;;;;;;7.55;3.80;;;;;;;9.73;51.74;102061.50;688032;28;1359;-81
2022/05/09 01:40:45;;;;;;;7.38;3.60;;;;;;;9.73;51.39;102060.63;689830;28;1209;-82
2022/05/09 01:41:06;;;;;;;7.90;3.90;;;;;;;9.71;51.19;102049.22;688021;28;1010;-82
2022/05/09 01:41:29;;;;;;;7.27;4.10;;;;;;;9.78;51.36;102059.16;685199;28;1328;-81
2022/05/09 01:41:51;;;;;;;7.25;4.60;;;;;;;9.78;51.67;102053.94;682771;29;855;-81
2022/05/09 01:42:14;;;;;;;6.65;4.30;;;;;;;9.86;51.47;102065.69;685224;28;1446;-82
2022/05/09 01:42:35;;;;;;;10.40;4.20;;;;;;;9.80;51.11;102047.09;690677;28;1304;-81
2022/05/09 01:42:56;;;;;;;9.20;4.20;;;;;;;9.84;51.38;102056.84;690759;28;838;-81
2022/05/09 01:43:34;;;;;;;10.37;4.20;;;;;;;9.93;51.22;102063.34;687927;28;1263;-81
2022/05/09 01:43:55;;;;;;;13.60;4.88;;;;;;;9.85;51.21;102048.22;688053;28;1390;-82
2022/05/09 01:44:16;;;;;;;12.35;4.80;;;;;;;9.88;51.02;102050.09;685273;28;1147;-81
2022/05/09 01:44:37;;;;;;;11.95;4.72;;;;;;;9.94;50.90;102062.56;689917;28;1266;-81
2022/05/09 01:44:58;;;;;;;9.00;4.10;;;;;;;9.94;51.01;102055.63;688127;28;820;-81
2022/05/09 01:45:20;;;;;;;10.85;4.35;;;;;;;9.98;50.99;102061.91;693307;28;1193;-81
2022/05/09 01:45:40;;;;;;;8.27;4.38;;;;;;;9.99;51.01;102061.97;688045;28;1259;-82
2022/05/09 01:46:11;;;;;;;9.23;4.40;;;;;;;10.01;51.16;102056.81;688162;28;748;-81
2022/05/09 01:46:31;;;;;;;8.73;4.40;;;;;;;9.96;51.03;102053.97;690625;28;929;-81
2022/05/09 01:49:41;;;;;;;5.93;4.10;;;;;;;10.01;51.07;102055.13;692843;28;822;-81
2022/05/09 01:50:02;;;;;;;7.32;4.28;;;;;;;10.03;50.77;102051.69;693543;28;896;-82
2022/05/09 01:50:23;;;;;;;7.38;4.13;;;;;;;10.01;51.25;102049.00;693408;28;1067;-81
2022/05/09 01:50:43;;;;;;;7.63;4.10;;;;;;;10.06;50.83;102059.69;690688;28;878;-82
2022/05/09 01:51:04;;;;;;;8.90;4.00;;;;;;;10.02;51.04;102058.63;688074;28;1160;-81
2022/05/09 01:51:25;;;;;;;9.00;4.20;;;;;;;10.03;50.92;102060.44;693328;28;1052;-81
2022/05/09 01:51:46;;;;;;;8.65;4.28;;;;;;;9.99;50.92;102054.16;685243;28;1190;-81
2022/05/09 01:52:09;;;;;;;7.43;4.47;;;;;;;10.00;50.77;102055.03;690509;28;1294;-81
2022/05/09 01:52:30;;;;;;;8.52;4.38;;;;;;;9.96;50.78;102053.97;690583;28;1922;-81
2022/05/09 01:52:51;;;;;;;9.33;4.37;;;;;;;9.96;50.87;102053.09;685454;28;1416;-82
2022/05/09 01:53:13;;;;;;;9.00;4.20;;;;;;;9.92;50.85;102052.03;690511;28;1317;-81
2022/05/09 01:53:33;;;;;;;10.93;4.25;;;;;;;9.94;51.04;102049.53;685133;28;909;-81
2022/05/09 01:53:54;;;;;;;9.87;4.23;;;;;;;9.99;50.94;102066.28;687900;28;1046;-82
2022/05/09 01:54:16;;;;;;;15.82;4.65;;;;;;;9.93;51.02;102058.13;690691;28;1184;-81
2022/05/09 01:54:39;;;;;;;13.55;4.60;;;;;;;9.95;51.03;102061.75;688017;28;1176;-81
2022/05/09 01:54:59;;;;;;;15.55;4.70;;;;;;;9.91;51.07;102054.56;687988;28;1298;-81
2022/05/09 01:55:20;;;;;;;7.47;4.25;;;;;;;9.84;51.24;102049.03;690572;28;1303;-81
2022/05/09 01:55:41;;;;;;;6.43;4.07;;;;;;;9.81;51.10;102048.88;693397;28;1160;-81
2022/05/09 01:56:13;;;;;;;5.50;3.90;;;;;;;9.84;51.11;102056.84;696271;28;787;-81
2022/05/09 01:56:43;;;;;;;6.93;4.13;;;;;;;9.87;51.04;102062.25;687669;28;2035;-81
2022/05/09 01:57:04;;;;;;;6.28;4.07;;;;;;;9.80;51.01;102056.63;694576;28;1554;-81